createdAt,value
2022-12-26T00:04:51.069Z,1.20
2022-12-26T00:10:09.619Z,1.10
2022-12-26T00:15:31.784Z,1.33
2022-12-26T00:20:54.263Z,1.30
2022-12-26T00:26:22.118Z,1.27
2022-12-26T00:31:44.318Z,1.30
2022-12-26T00:37:06.904Z,1.23
2022-12-26T00:42:28.823Z,1.30
2022-12-26T00:47:51.085Z,1.27
2022-12-26T00:53:13.443Z,1.30
2022-12-26T00:58:36.979Z,1.30
2022-12-26T01:03:59.439Z,1.40
2022-12-26T01:09:21.763Z,1.70
2022-12-26T01:14:43.783Z,1.65
2022-12-26T01:20:06.616Z,2.05
2022-12-26T01:25:28.823Z,1.80
2022-12-26T01:30:51.497Z,1.40
2022-12-26T01:36:23.415Z,1.40
2022-12-26T01:41:45.913Z,1.40
2022-12-26T01:47:07.737Z,1.40
2022-12-26T01:52:37.950Z,1.52
2022-12-26T01:58:10.446Z,2.10
2022-12-26T02:03:51.638Z,1.40
2022-12-26T02:09:13.964Z,1.75
2022-12-26T02:14:37.733Z,1.35
2022-12-26T02:20:11.719Z,2.60
2022-12-26T02:25:36.651Z,1.20
2022-12-26T02:31:22.963Z,1.40
2022-12-26T02:37:12.561Z,3.25
2022-12-26T02:42:34.791Z,2.05
2022-12-26T02:48:44.829Z,1.45
2022-12-26T02:54:44.187Z,1.30
2022-12-26T03:00:31.854Z,1.40
2022-12-26T03:06:19.750Z,1.52
2022-12-26T03:12:02.703Z,1.40
2022-12-26T03:17:43.902Z,1.38
2022-12-26T03:23:15.970Z,1.40
2022-12-26T03:28:40.080Z,1.40
2022-12-26T03:34:19.295Z,1.77
2022-12-26T03:40:21.783Z,1.50
2022-12-26T03:46:21.558Z,1.95
2022-12-26T03:52:18.584Z,1.63
2022-12-26T03:58:10.874Z,1.40
2022-12-26T04:03:53.666Z,1.50
2022-12-26T04:10:29.827Z,1.50
2022-12-26T04:16:24.984Z,1.50
2022-12-26T04:22:12.513Z,1.92
2022-12-26T04:27:53.571Z,1.40
2022-12-26T04:33:43.422Z,1.30
2022-12-26T04:39:28.152Z,1.30
2022-12-26T04:44:51.458Z,1.30
2022-12-26T04:50:14.805Z,1.40
2022-12-26T04:55:37.016Z,2.20
2022-12-26T05:01:18.885Z,1.30
2022-12-26T05:07:05.711Z,1.20
2022-12-26T05:12:35.084Z,1.20
2022-12-26T05:18:15.812Z,1.77
2022-12-26T05:24:00.339Z,1.30
2022-12-26T05:29:26.482Z,2.78
2022-12-26T05:34:50.604Z,2.97
2022-12-26T05:40:12.987Z,1.58
2022-12-26T05:45:34.732Z,1.20
2022-12-26T05:51:05.072Z,1.58
2022-12-26T05:56:27.593Z,1.20
2022-12-26T06:01:49.684Z,1.30
2022-12-26T06:07:11.999Z,1.30
2022-12-26T06:12:34.888Z,1.20
2022-12-26T06:17:57.288Z,1.10
2022-12-26T06:23:19.261Z,1.10
2022-12-26T06:28:43.282Z,1.33
2022-12-26T06:34:06.588Z,1.20
2022-12-26T06:39:29.174Z,1.85
2022-12-26T06:44:51.463Z,1.10
2022-12-26T06:50:13.977Z,1.20
2022-12-26T06:55:35.956Z,1.73
2022-12-26T07:01:08.001Z,1.30
2022-12-26T07:06:35.649Z,1.10
2022-12-26T07:12:00.175Z,1.65
2022-12-26T07:41:59.497Z,1.10
2022-12-26T07:47:21.634Z,1.20
2022-12-26T07:52:43.785Z,1.55
2022-12-26T07:58:10.331Z,2.08
2022-12-26T08:03:38.983Z,1.10
2022-12-26T08:09:11.950Z,1.23
2022-12-26T08:14:54.217Z,1.35
2022-12-26T08:20:16.129Z,1.70
2022-12-26T08:25:38.134Z,1.00
2022-12-26T08:31:10.696Z,1.00
2022-12-26T08:36:33.106Z,1.00
2022-12-26T08:41:57.810Z,1.00
2022-12-26T08:47:20.587Z,1.00
2022-12-26T08:52:43.632Z,0.98
2022-12-26T08:58:05.924Z,1.40
2022-12-26T09:03:28.065Z,0.95
2022-12-26T09:08:50.609Z,1.00
2022-12-26T09:14:13.136Z,0.93
2022-12-26T09:19:38.430Z,1.23
2022-12-26T09:25:00.523Z,1.00
2022-12-26T09:30:24.464Z,0.95
2022-12-26T09:35:47.002Z,1.42
2022-12-26T09:41:43.623Z,1.05
2022-12-26T09:47:27.085Z,1.00
2022-12-26T09:53:00.172Z,0.95
2022-12-26T09:58:30.602Z,1.40
2022-12-26T10:03:57.381Z,1.20
2022-12-26T10:09:50.229Z,1.27
2022-12-26T10:15:14.891Z,3.13
2022-12-26T10:20:46.225Z,0.90
2022-12-26T10:26:19.422Z,1.90
2022-12-26T10:32:07.674Z,0.90
2022-12-26T10:37:41.110Z,0.90
2022-12-26T10:43:24.191Z,1.00
2022-12-26T10:48:47.413Z,0.98
2022-12-26T10:54:15.442Z,0.90
2022-12-26T10:59:44.758Z,1.00
2022-12-26T11:11:27.056Z,1.10
2022-12-26T11:16:49.925Z,1.25
2022-12-26T11:22:23.612Z,1.05
2022-12-26T11:28:24.814Z,0.90
2022-12-26T11:33:47.510Z,0.90
2022-12-26T11:39:38.105Z,1.27
2022-12-26T11:45:04.366Z,0.93
2022-12-26T11:50:29.899Z,0.90
2022-12-26T11:56:02.132Z,0.90
2022-12-26T12:01:45.211Z,1.00
2022-12-26T12:07:53.062Z,1.30
2022-12-26T12:13:57.197Z,1.23
2022-12-26T12:19:38.320Z,1.00
2022-12-26T12:25:29.587Z,0.90
2022-12-26T12:31:30.660Z,0.95
2022-12-26T12:37:38.651Z,0.90
2022-12-26T12:43:34.843Z,0.90
2022-12-26T12:49:05.215Z,0.90
2022-12-26T12:54:32.944Z,0.93
2022-12-26T13:00:14.372Z,1.10
2022-12-26T13:05:56.502Z,0.90
2022-12-26T13:11:40.943Z,0.90
2022-12-26T13:17:15.038Z,0.90
2022-12-26T13:23:03.565Z,0.90
2022-12-26T13:28:32.901Z,1.00
2022-12-26T13:33:55.084Z,0.90
2022-12-26T13:39:26.694Z,1.08
2022-12-26T13:44:53.639Z,0.93
2022-12-26T13:50:56.416Z,0.90
2022-12-26T13:56:19.443Z,0.90
2022-12-26T14:01:55.055Z,2.88
2022-12-26T14:07:54.985Z,1.02
2022-12-26T14:13:56.812Z,0.98
2022-12-26T14:19:52.042Z,0.88
2022-12-26T14:25:20.118Z,1.27
2022-12-26T14:31:11.823Z,0.90
2022-12-26T14:37:03.824Z,0.90
2022-12-26T14:48:15.991Z,0.90
2022-12-26T14:53:38.793Z,1.23
2022-12-26T14:59:35.415Z,0.90
2022-12-26T15:05:15.834Z,0.90
2022-12-26T15:11:01.626Z,0.90
2022-12-26T15:16:31.488Z,0.90
2022-12-26T15:22:04.231Z,0.93
2022-12-26T15:27:48.235Z,1.00
2022-12-26T15:33:23.764Z,0.90
2022-12-26T15:39:04.616Z,1.42
2022-12-26T15:44:47.229Z,1.15
2022-12-26T15:50:25.667Z,0.90
2022-12-26T15:56:15.175Z,0.90
2022-12-26T16:01:38.717Z,0.90
2022-12-26T16:07:10.136Z,0.90
2022-12-26T16:12:35.940Z,0.90
2022-12-26T16:18:20.971Z,1.00
2022-12-26T16:23:46.482Z,0.93
2022-12-26T16:29:10.631Z,0.90
2022-12-26T16:34:36.630Z,0.80
2022-12-26T16:40:18.542Z,1.10
2022-12-26T16:45:41.234Z,0.90
2022-12-26T16:51:27.746Z,1.25
2022-12-26T16:56:57.653Z,0.90
2022-12-26T17:02:37.521Z,0.95
2022-12-26T17:08:02.149Z,0.90
2022-12-26T17:13:28.133Z,2.25
2022-12-26T17:18:55.968Z,0.90
2022-12-26T17:24:26.262Z,1.00
2022-12-26T17:29:56.842Z,0.90
2022-12-26T17:35:24.562Z,1.00
2022-12-26T17:40:47.897Z,1.63
2022-12-26T17:46:16.898Z,3.15
2022-12-26T17:51:39.153Z,2.13
2022-12-26T17:57:01.563Z,0.93
2022-12-26T18:02:24.312Z,0.90
2022-12-26T18:07:47.983Z,0.98
2022-12-26T18:13:16.409Z,1.20
2022-12-26T18:18:41.648Z,2.35
2022-12-26T18:24:07.253Z,0.90
2022-12-26T18:29:29.521Z,1.60
2022-12-26T18:34:53.109Z,1.10
2022-12-26T18:40:39.925Z,0.90
2022-12-26T18:46:02.389Z,1.55
2022-12-26T18:51:26.086Z,1.13
2022-12-26T18:56:48.263Z,2.92
2022-12-26T19:02:17.507Z,3.63
2022-12-26T19:07:40.098Z,1.80
2022-12-26T19:13:06.479Z,2.45
2022-12-26T19:18:28.631Z,2.20
2022-12-26T19:23:51.043Z,1.20
2022-12-26T19:29:12.973Z,2.17
2022-12-26T19:34:34.737Z,1.52
2022-12-26T19:39:57.347Z,2.22
2022-12-26T19:45:19.462Z,1.58
2022-12-26T19:50:41.794Z,0.90
2022-12-26T19:56:15.562Z,5.53
2022-12-26T20:01:37.854Z,1.20
2022-12-26T20:07:01.363Z,2.35
2022-12-26T20:12:23.500Z,1.20
2022-12-26T20:17:45.645Z,3.55
2022-12-26T20:23:08.008Z,3.40
2022-12-26T20:28:30.398Z,0.90
2022-12-26T20:33:53.115Z,2.35
2022-12-26T20:39:18.343Z,1.38
2022-12-26T20:44:42.040Z,1.35
2022-12-26T20:50:04.663Z,1.27
2022-12-26T20:55:26.573Z,1.70
2022-12-26T21:00:48.883Z,1.25
2022-12-26T21:06:15.918Z,3.17
2022-12-26T21:11:39.732Z,1.95
2022-12-26T21:17:02.140Z,0.90
2022-12-26T21:22:24.443Z,1.10
2022-12-26T21:27:49.607Z,0.90
2022-12-26T21:33:14.833Z,1.17
2022-12-26T21:38:37.286Z,0.90
2022-12-26T21:44:00.038Z,3.17
2022-12-26T21:49:22.169Z,1.17
2022-12-26T21:55:02.632Z,3.30
2022-12-26T22:00:24.883Z,1.63
2022-12-26T22:05:47.184Z,5.85
2022-12-26T22:11:36.176Z,7.55
2022-12-26T22:22:20.126Z,4.82
2022-12-26T22:27:42.335Z,8.48
2022-12-26T22:33:04.657Z,5.30
2022-12-26T22:38:28.481Z,6.07
2022-12-26T22:43:54.993Z,4.97
2022-12-26T22:49:17.035Z,5.28
2022-12-26T22:54:40.041Z,3.65
2022-12-26T23:00:08.750Z,4.95
2022-12-26T23:05:31.684Z,3.70
2022-12-26T23:10:56.639Z,4.25
2022-12-26T23:16:32.745Z,4.57
2022-12-26T23:21:55.440Z,3.17
2022-12-26T23:27:36.457Z,3.17
2022-12-26T23:32:59.275Z,2.92
2022-12-26T23:38:21.213Z,4.07
2022-12-26T23:43:43.458Z,3.35
2022-12-26T23:49:05.677Z,3.15
2022-12-26T23:54:28.106Z,2.60
2022-12-26T23:59:49.799Z,4.20
